Time;durP1;ratioP1;P1;durP2;ratioP2;P2;SDS_P1;SDS_P2;PMS_P1;PMS_P2;Temp;Humidity;BMP_temperature;BMP_pressure;BME280_temperature;BME280_humidity;BME280_pressure;Samples;Min_cycle;Max_cycle;Signal;HPM_P1;HPM_P2
2022/11/02 00:01:55;;;;;;;12.63;10.07;;;10.10;99.90;;;;;;4999681;28;20446;-85
2022/11/02 00:04:23;;;;;;;12.37;9.57;;;10.10;99.90;;;;;;4999559;28;20447;-85
2022/11/02 00:06:49;;;;;;;18.10;10.50;;;10.10;99.90;;;;;;4999312;28;20458;-85
2022/11/02 00:09:16;;;;;;;16.40;9.87;;;10.10;99.90;;;;;;4998723;28;20478;-84
2022/11/02 00:11:43;;;;;;;16.20;9.97;;;10.00;99.90;;;;;;5007136;28;20459;-84
2022/11/02 00:14:09;;;;;;;18.17;11.47;;;10.00;99.90;;;;;;5013043;28;20454;-84
2022/11/02 00:16:38;;;;;;;11.00;8.93;;;10.10;99.90;;;;;;5005374;28;20481;-84
2022/11/02 00:19:04;;;;;;;14.03;9.93;;;10.10;99.90;;;;;;5006513;28;20478;-84
2022/11/02 00:21:33;;;;;;;12.37;10.13;;;10.00;99.90;;;;;;5000177;28;20823;-85
2022/11/02 00:24:01;;;;;;;11.10;8.80;;;9.90;99.90;;;;;;4999308;28;20447;-84
2022/11/02 00:26:28;;;;;;;9.10;8.20;;;9.90;99.90;;;;;;4999897;28;20453;-85
2022/11/02 00:28:55;;;;;;;13.57;8.17;;;9.90;99.90;;;;;;4998036;28;21055;-84
2022/11/02 00:31:22;;;;;;;14.17;8.37;;;9.80;99.90;;;;;;5001340;28;20447;-84
2022/11/02 00:33:48;;;;;;;10.40;8.60;;;9.80;99.90;;;;;;5009472;28;20460;-85
2022/11/02 00:36:16;;;;;;;10.90;8.17;;;9.90;99.90;;;;;;5005549;28;20462;-84
2022/11/02 00:38:44;;;;;;;13.40;9.27;;;9.90;99.90;;;;;;5003695;28;20503;-84
2022/11/02 00:41:11;;;;;;;10.27;8.87;;;9.90;99.90;;;;;;5014683;28;20434;-83
2022/11/02 00:43:38;;;;;;;10.27;8.10;;;10.00;99.90;;;;;;5009254;28;20883;-85
2022/11/02 00:46:05;;;;;;;12.33;7.80;;;10.00;99.90;;;;;;5000531;28;20451;-84
2022/11/02 00:48:32;;;;;;;16.53;8.10;;;10.00;99.90;;;;;;4999319;28;20484;-84
2022/11/02 00:50:58;;;;;;;12.13;8.50;;;10.00;99.90;;;;;;4998556;28;20450;-83
2022/11/02 00:53:25;;;;;;;11.23;7.23;;;9.90;99.90;;;;;;5011819;28;20562;-84
2022/11/02 00:55:53;;;;;;;17.23;8.37;;;9.90;99.90;;;;;;5006750;28;20451;-84
2022/11/02 00:58:20;;;;;;;11.77;8.47;;;9.90;99.90;;;;;;5000785;28;20489;-84
2022/11/02 01:00:47;;;;;;;11.90;8.10;;;10.00;99.90;;;;;;4999986;28;20450;-84
2022/11/02 01:03:14;;;;;;;9.13;7.43;;;10.00;99.90;;;;;;4998802;28;20538;-85
2022/11/02 01:05:41;;;;;;;12.33;7.83;;;9.90;99.90;;;;;;4998967;28;20975;-84
2022/11/02 01:08:08;;;;;;;13.00;8.60;;;9.90;99.90;;;;;;4996492;28;20460;-85
2022/11/02 01:10:35;;;;;;;12.60;7.60;;;9.90;99.90;;;;;;4998624;28;20475;-84
2022/11/02 01:13:03;;;;;;;13.63;9.67;;;9.90;99.90;;;;;;5002977;28;20448;-84
2022/11/02 01:15:30;;;;;;;13.03;7.27;;;9.90;99.90;;;;;;5001067;28;20443;-84
2022/11/02 01:17:57;;;;;;;8.27;6.70;;;9.80;99.90;;;;;;4998159;28;20480;-85
2022/11/02 01:20:23;;;;;;;8.47;6.47;;;9.90;99.90;;;;;;4998671;28;20469;-85
2022/11/02 01:22:50;;;;;;;11.83;6.93;;;9.90;99.90;;;;;;4998443;28;20455;-85
2022/11/02 01:25:17;;;;;;;10.13;8.03;;;10.00;99.90;;;;;;4997981;28;20828;-84
2022/11/02 01:27:44;;;;;;;10.27;6.60;;;10.00;99.90;;;;;;4998085;28;20511;-85
2022/11/02 01:30:13;;;;;;;15.27;6.70;;;10.00;99.90;;;;;;4998365;28;20471;-85
2022/11/02 01:32:40;;;;;;;10.83;6.93;;;10.00;99.90;;;;;;4999197;28;20459;-84
2022/11/02 01:35:07;;;;;;;12.67;7.50;;;10.00;99.90;;;;;;4998465;28;20443;-85
2022/11/02 01:37:34;;;;;;;12.20;7.13;;;10.00;99.90;;;;;;5004122;28;20491;-83
2022/11/02 01:40:01;;;;;;;8.30;6.87;;;10.00;99.90;;;;;;5010279;28;20455;-83
2022/11/02 01:42:28;;;;;;;12.10;6.97;;;10.00;99.90;;;;;;5009627;28;20450;-84
2022/11/02 01:44:54;;;;;;;15.40;7.93;;;10.10;99.90;;;;;;5008996;28;20455;-84
2022/11/02 01:47:26;;;;;;;14.60;7.10;;;10.10;99.90;;;;;;5005591;28;20454;-85
2022/11/02 01:49:56;;;;;;;10.67;7.70;;;10.10;99.90;;;;;;4998939;28;20468;-83
2022/11/02 01:52:28;;;;;;;8.90;6.63;;;10.20;99.90;;;;;;4998637;28;20451;-84
2022/11/02 01:54:59;;;;;;;13.77;8.03;;;10.20;99.90;;;;;;4997712;28;20454;-84
2022/11/02 01:57:28;;;;;;;10.87;8.80;;;10.20;99.90;;;;;;4997401;28;20487;-84
2022/11/02 02:00:00;;;;;;;8.13;7.17;;;10.20;99.90;;;;;;4998307;28;20984;-84
2022/11/02 02:02:28;;;;;;;10.53;7.20;;;10.20;99.90;;;;;;5000127;28;20447;-84
2022/11/02 02:05:01;;;;;;;15.57;7.53;;;10.20;99.90;;;;;;5002208;28;20447;-84
2022/11/02 02:07:30;;;;;;;11.77;7.77;;;10.20;99.90;;;;;;5002272;28;20530;-83
2022/11/02 02:09:57;;;;;;;9.83;7.80;;;10.20;99.90;;;;;;5001656;28;20472;-84
2022/11/02 02:12:25;;;;;;;7.30;6.60;;;10.20;99.90;;;;;;5001429;28;20443;-84
2022/11/02 02:14:53;;;;;;;13.30;7.50;;;10.30;99.90;;;;;;5002043;28;20459;-84
2022/11/02 02:17:39;;;;;;;11.43;6.83;;;10.30;99.90;;;;;;5001105;28;21143;-84
2022/11/02 02:20:16;;;;;;;9.70;6.80;;;10.30;99.90;;;;;;5001080;28;20494;-84
2022/11/02 02:23:22;;;;;;;9.43;7.77;;;10.20;99.90;;;;;;5001179;28;20451;-86
2022/11/02 02:26:14;;;;;;;9.40;7.37;;;10.30;99.90;;;;;;5001104;28;20446;-83
2022/11/02 02:28:48;;;;;;;10.17;7.83;;;10.30;99.90;;;;;;4973337;28;20558;-83
2022/11/02 02:31:22;;;;;;;8.77;7.93;;;10.30;99.90;;;;;;5002412;28;20610;-84
2022/11/02 02:33:55;;;;;;;14.57;7.20;;;10.20;99.90;;;;;;5000683;28;20450;-85
2022/11/02 02:36:27;;;;;;;11.47;6.60;;;10.20;99.90;;;;;;5003887;28;20450;-84
2022/11/02 02:39:02;;;;;;;8.17;7.07;;;10.20;99.90;;;;;;5012066;28;20502;-84
2022/11/02 02:41:37;;;;;;;8.40;6.30;;;10.20;99.90;;;;;;5008202;28;20447;-84
2022/11/02 02:44:08;;;;;;;9.47;6.77;;;10.30;99.90;;;;;;5002790;28;20945;-85
2022/11/02 02:46:42;;;;;;;10.33;7.40;;;10.30;99.90;;;;;;5002385;28;20462;-85
2022/11/02 02:49:18;;;;;;;9.90;7.53;;;10.30;99.90;;;;;;5009039;28;20502;-85
2022/11/02 02:51:47;;;;;;;9.97;7.40;;;10.30;99.90;;;;;;5005695;28;20451;-85
2022/11/02 02:54:19;;;;;;;10.27;6.63;;;10.30;99.90;;;;;;5000824;28;20816;-85
2022/11/02 02:56:50;;;;;;;9.73;8.73;;;10.20;99.90;;;;;;5002323;28;20459;-85
2022/11/02 02:59:22;;;;;;;9.70;5.80;;;10.20;99.90;;;;;;5002347;28;20482;-84
2022/11/02 03:01:49;;;;;;;8.37;6.17;;;10.20;99.90;;;;;;5008867;28;20509;-84
2022/11/02 03:04:16;;;;;;;8.40;6.80;;;10.20;99.90;;;;;;5019876;28;20436;-85
2022/11/02 03:06:48;;;;;;;10.97;8.27;;;10.20;99.90;;;;;;5017936;28;20438;-85
2022/11/02 03:09:24;;;;;;;8.13;6.30;;;10.20;99.90;;;;;;5012463;28;20478;-84
2022/11/02 03:11:59;;;;;;;9.97;7.40;;;10.20;99.90;;;;;;4997602;28;20455;-84
2022/11/02 03:14:37;;;;;;;9.40;7.37;;;10.20;99.90;;;;;;4998970;28;20451;-84
2022/11/02 03:17:14;;;;;;;9.80;6.90;;;10.10;99.90;;;;;;4997836;28;20998;-84
2022/11/02 03:19:49;;;;;;;10.87;7.47;;;10.20;99.90;;;;;;5008180;28;20439;-83
2022/11/02 03:22:26;;;;;;;10.97;7.10;;;10.20;99.90;;;;;;5018257;28;20439;-84
2022/11/02 03:25:00;;;;;;;10.57;7.23;;;10.20;99.90;;;;;;5005454;28;20458;-84
2022/11/02 03:27:38;;;;;;;9.73;6.60;;;10.20;99.90;;;;;;5004030;28;20452;-83
2022/11/02 03:30:11;;;;;;;10.90;7.30;;;10.30;99.90;;;;;;5014762;28;20477;-83
2022/11/02 03:32:44;;;;;;;10.27;7.50;;;10.20;99.90;;;;;;5005966;28;20554;-84
2022/11/02 03:35:19;;;;;;;9.90;7.00;;;10.30;99.90;;;;;;5001479;28;20913;-83
2022/11/02 03:37:52;;;;;;;8.30;7.30;;;10.30;99.90;;;;;;5011498;28;20504;-84
2022/11/02 03:40:24;;;;;;;9.13;8.23;;;10.30;99.90;;;;;;5001710;28;21014;-84
2022/11/02 03:42:54;;;;;;;10.33;7.50;;;10.30;99.90;;;;;;5000833;28;20459;-84
2022/11/02 03:45:25;;;;;;;14.00;7.70;;;10.20;99.90;;;;;;5000442;28;20526;-84
2022/11/02 03:47:56;;;;;;;14.63;7.70;;;10.20;99.90;;;;;;5001304;28;20715;-84
2022/11/02 03:50:26;;;;;;;10.23;7.63;;;10.20;99.90;;;;;;5001135;28;20462;-84
2022/11/02 03:52:58;;;;;;;9.23;8.13;;;10.20;99.90;;;;;;5000557;28;20911;-84
2022/11/02 03:55:31;;;;;;;9.50;8.00;;;10.20;99.90;;;;;;4999815;28;20450;-84
2022/11/02 03:57:59;;;;;;;9.07;7.40;;;10.30;99.90;;;;;;4999005;28;20565;-84
2022/11/02 04:00:30;;;;;;;7.50;6.80;;;10.20;99.90;;;;;;5008666;28;20430;-86
2022/11/02 04:03:01;;;;;;;13.97;8.40;;;10.20;99.90;;;;;;5016637;28;20455;-84
2022/11/02 04:05:29;;;;;;;7.33;6.57;;;10.30;99.90;;;;;;4998092;28;20483;-84
2022/11/02 04:14:36;;;;;;;10.57;6.80;;;10.20;99.90;;;;;;5000539;28;20800;-85
2022/11/02 04:16:14;;;;;;;13.13;7.60;;;10.20;99.90;;;;;;4999462;28;20438;-85
2022/11/02 04:21:26;;;;;;;12.73;8.50;;;10.20;99.90;;;;;;5001313;28;20427;-84
2022/11/02 04:26:38;;;;;;;13.40;8.33;;;10.20;99.90;;;;;;5007471;28;20963;-84
2022/11/02 04:29:05;;;;;;;20.57;10.10;;;10.20;99.90;;;;;;5002871;28;20478;-84
2022/11/02 04:31:33;;;;;;;19.43;10.70;;;10.20;99.90;;;;;;5001553;28;20523;-84
2022/11/02 04:33:59;;;;;;;19.10;11.50;;;10.20;99.90;;;;;;5006795;28;20447;-84
2022/11/02 04:36:39;;;;;;;19.63;11.47;;;10.10;99.90;;;;;;5004189;28;20474;-84
2022/11/02 04:39:05;;;;;;;16.23;10.97;;;10.20;99.90;;;;;;5010211;28;20228;-85
2022/11/02 04:41:44;;;;;;;14.63;10.77;;;10.10;99.90;;;;;;5004824;28;20451;-85
2022/11/02 04:44:13;;;;;;;14.37;9.80;;;10.10;99.90;;;;;;5007336;28;20231;-84
2022/11/02 04:46:43;;;;;;;15.50;9.80;;;10.10;99.90;;;;;;5005711;28;20456;-85
2022/11/02 04:49:11;;;;;;;15.13;10.13;;;10.00;99.90;;;;;;4998908;28;20559;-84
2022/11/02 04:51:39;;;;;;;19.30;10.90;;;10.00;99.90;;;;;;5000366;28;20447;-85
2022/11/02 04:54:07;;;;;;;15.53;9.27;;;9.90;99.90;;;;;;5000129;28;20447;-83
2022/11/02 04:56:34;;;;;;;14.67;9.77;;;9.90;99.90;;;;;;5003636;28;20482;-84
2022/11/02 04:59:01;;;;;;;12.50;9.13;;;9.80;99.90;;;;;;5002387;28;20459;-84
2022/11/02 05:01:29;;;;;;;13.30;9.37;;;9.80;99.90;;;;;;5002126;28;20443;-83
2022/11/02 05:03:58;;;;;;;17.53;9.07;;;9.80;99.90;;;;;;5003890;28;20451;-83
2022/11/02 05:06:25;;;;;;;19.33;10.80;;;9.80;99.90;;;;;;5009319;28;20454;-82
2022/11/02 05:08:52;;;;;;;11.73;8.80;;;9.80;99.90;;;;;;5004915;28;20503;-83
2022/11/02 05:11:19;;;;;;;13.60;9.57;;;9.70;99.90;;;;;;5004094;28;20452;-83
2022/11/02 05:13:46;;;;;;;15.43;9.53;;;9.70;99.90;;;;;;5004430;28;20451;-81
2022/11/02 05:16:15;;;;;;;10.40;8.30;;;9.60;99.90;;;;;;5002858;28;20559;-84
2022/11/02 05:18:42;;;;;;;12.43;9.00;;;9.70;99.90;;;;;;5014236;28;20463;-83
2022/11/02 05:21:11;;;;;;;12.60;8.60;;;9.60;99.90;;;;;;5016615;28;20510;-82
2022/11/02 05:23:38;;;;;;;11.90;9.07;;;9.60;99.90;;;;;;5014708;28;20454;-83
2022/11/02 05:26:07;;;;;;;13.23;9.57;;;9.60;99.90;;;;;;5003581;28;20452;-83
2022/11/02 05:28:34;;;;;;;18.73;10.23;;;9.60;99.90;;;;;;5001906;28;20818;-84
2022/11/02 05:31:01;;;;;;;20.33;9.07;;;9.50;99.90;;;;;;5013286;28;20554;-83
2022/11/02 05:33:29;;;;;;;16.17;9.77;;;9.50;99.90;;;;;;5012432;28;20515;-83
2022/11/02 05:35:56;;;;;;;20.60;8.13;;;9.60;99.90;;;;;;4997764;28;20478;-84
2022/11/02 05:38:24;;;;;;;16.03;8.50;;;9.60;99.90;;;;;;5001721;28;20821;-83
2022/11/02 05:40:54;;;;;;;16.50;9.80;;;9.60;99.90;;;;;;5010404;28;20451;-82
2022/11/02 05:43:21;;;;;;;12.70;8.40;;;9.70;99.90;;;;;;5016638;28;20454;-82
2022/11/02 05:45:53;;;;;;;19.03;9.37;;;9.60;99.90;;;;;;5012333;28;20447;-82
2022/11/02 05:48:21;;;;;;;14.37;9.13;;;9.70;99.90;;;;;;4999651;28;21018;-82
2022/11/02 05:50:48;;;;;;;15.80;8.07;;;9.70;99.90;;;;;;5004058;28;20444;-83
2022/11/02 05:53:19;;;;;;;15.87;9.20;;;9.70;99.90;;;;;;5011239;28;20447;-83
2022/11/02 05:55:47;;;;;;;14.57;8.90;;;9.70;99.90;;;;;;5008652;28;20479;-83
2022/11/02 05:58:14;;;;;;;21.73;11.17;;;9.80;99.90;;;;;;5008691;28;20506;-83
2022/11/02 06:00:41;;;;;;;19.87;11.73;;;9.80;99.90;;;;;;5006796;28;20463;-84
2022/11/02 06:03:08;;;;;;;19.37;11.00;;;9.80;99.90;;;;;;5005912;28;20799;-83
2022/11/02 06:05:35;;;;;;;20.50;12.00;;;9.80;99.90;;;;;;5005879;28;20445;-83
2022/11/02 06:08:02;;;;;;;16.73;10.97;;;9.70;99.90;;;;;;5003145;28;20473;-84
2022/11/02 06:10:30;;;;;;;15.17;10.33;;;9.70;99.90;;;;;;5003774;28;20471;-84
2022/11/02 06:13:00;;;;;;;14.10;10.20;;;9.70;99.90;;;;;;5002554;28;20458;-83
2022/11/02 06:15:27;;;;;;;10.47;9.20;;;9.70;99.90;;;;;;5006763;28;20446;-84
2022/11/02 06:17:54;;;;;;;17.57;8.77;;;9.70;99.90;;;;;;5005126;28;20454;-84
2022/11/02 06:20:22;;;;;;;11.83;7.70;;;9.70;99.90;;;;;;5006123;28;20459;-82
2022/11/02 06:22:49;;;;;;;16.33;9.33;;;9.80;99.90;;;;;;5004326;28;20455;-84
2022/11/02 06:25:17;;;;;;;11.10;8.90;;;9.80;99.90;;;;;;5003527;28;20455;-83
2022/11/02 06:27:55;;;;;;;13.30;7.87;;;9.90;99.90;;;;;;5002360;28;20502;-84
2022/11/02 06:30:23;;;;;;;16.33;9.30;;;9.90;99.90;;;;;;5007591;28;20443;-84
2022/11/02 06:32:52;;;;;;;20.17;8.90;;;9.90;99.90;;;;;;4998961;28;20466;-84
2022/11/02 06:35:20;;;;;;;18.07;9.20;;;9.90;99.90;;;;;;5000720;28;20454;-83
2022/11/02 06:37:47;;;;;;;17.43;9.03;;;9.90;99.90;;;;;;4999948;28;20459;-83
2022/11/02 06:40:15;;;;;;;22.90;9.80;;;10.00;99.90;;;;;;4999972;28;20605;-83
2022/11/02 06:42:42;;;;;;;13.63;9.00;;;10.10;99.90;;;;;;5001501;28;20699;-83
2022/11/02 06:45:09;;;;;;;22.33;10.37;;;10.10;99.90;;;;;;5009048;28;20462;-83
2022/11/02 06:47:40;;;;;;;16.03;9.60;;;10.10;99.90;;;;;;5004417;28;20456;-84
2022/11/02 06:50:07;;;;;;;17.17;10.00;;;10.30;99.90;;;;;;5004877;28;20483;-84
2022/11/02 06:52:35;;;;;;;18.40;9.73;;;10.40;99.90;;;;;;5006349;28;20458;-84
2022/11/02 06:55:02;;;;;;;16.80;9.47;;;10.50;99.90;;;;;;5003179;28;20459;-86
2022/11/02 06:57:28;;;;;;;17.20;9.40;;;10.70;99.90;;;;;;5003860;28;21034;-84
2022/11/02 07:00:02;;;;;;;14.67;8.70;;;10.80;99.90;;;;;;5018354;28;20459;-83
2022/11/02 07:02:29;;;;;;;15.93;9.43;;;10.90;99.90;;;;;;5019787;28;20456;-82
2022/11/02 07:04:57;;;;;;;13.60;8.40;;;11.00;99.90;;;;;;5018649;28;20470;-82
2022/11/02 07:07:24;;;;;;;13.63;7.37;;;11.10;99.90;;;;;;4999689;28;20452;-82
2022/11/02 07:09:51;;;;;;;14.73;8.40;;;11.20;99.90;;;;;;5001814;28;20501;-84
2022/11/02 07:12:18;;;;;;;21.63;8.13;;;11.30;99.90;;;;;;5011647;28;20451;-82
2022/11/02 07:14:44;;;;;;;15.37;8.93;;;11.40;99.90;;;;;;5005588;28;20455;-83
2022/11/02 07:17:11;;;;;;;21.13;8.40;;;11.50;99.90;;;;;;5003714;28;20452;-83
2022/11/02 07:19:38;;;;;;;9.60;6.97;;;11.60;99.90;;;;;;5004181;28;20463;-83
2022/11/02 07:22:06;;;;;;;12.10;6.10;;;11.60;99.90;;;;;;5009148;28;20454;-83
2022/11/02 07:24:33;;;;;;;12.03;6.20;;;11.70;99.90;;;;;;5011380;28;20459;-83
2022/11/02 07:27:00;;;;;;;10.87;6.97;;;11.80;99.90;;;;;;5014640;28;20440;-84
2022/11/02 07:29:27;;;;;;;13.70;6.03;;;12.00;99.90;;;;;;5005997;28;20550;-83
2022/11/02 07:31:54;;;;;;;13.80;6.90;;;12.20;99.90;;;;;;5006227;28;20455;-84
2022/11/02 07:34:21;;;;;;;9.60;6.23;;;12.30;99.90;;;;;;5006350;28;20972;-84
2022/11/02 07:36:48;;;;;;;10.60;5.83;;;12.60;99.90;;;;;;5005392;28;20463;-83
2022/11/02 07:39:17;;;;;;;11.70;6.30;;;12.70;99.90;;;;;;5007037;28;20645;-84
2022/11/02 07:41:44;;;;;;;12.40;4.70;;;13.00;99.90;;;;;;5005143;28;20447;-82
2022/11/02 07:44:11;;;;;;;12.00;5.30;;;13.30;99.90;;;;;;5013814;28;20448;-83
2022/11/02 07:46:38;;;;;;;18.50;6.20;;;13.40;99.90;;;;;;5009283;28;20519;-84
2022/11/02 07:49:04;;;;;;;11.53;5.90;;;13.60;99.90;;;;;;5000880;28;20503;-84
2022/11/02 07:51:31;;;;;;;12.97;7.80;;;13.70;99.90;;;;;;5000908;28;20447;-84
2022/11/02 07:53:59;;;;;;;10.60;5.17;;;13.50;99.90;;;;;;4999926;28;20455;-84
2022/11/02 07:56:27;;;;;;;11.90;4.57;;;13.50;99.90;;;;;;5001422;28;20457;-83
2022/11/02 07:58:54;;;;;;;9.77;4.70;;;13.70;99.90;;;;;;5009769;28;20472;-82
2022/11/02 08:01:21;;;;;;;12.13;5.00;;;14.00;99.90;;;;;;5010959;28;20450;-83
2022/11/02 08:03:48;;;;;;;10.90;4.57;;;14.00;99.90;;;;;;5006109;28;20455;-82
2022/11/02 08:06:15;;;;;;;11.07;4.73;;;14.00;99.90;;;;;;5005630;28;20502;-84
2022/11/02 08:08:43;;;;;;;7.70;4.37;;;14.20;99.90;;;;;;5001470;28;20487;-84
2022/11/02 08:11:12;;;;;;;8.37;5.27;;;14.40;99.90;;;;;;5000769;28;20750;-83
2022/11/02 08:13:42;;;;;;;9.70;5.10;;;14.50;99.90;;;;;;5000571;28;20530;-84
2022/11/02 08:16:09;;;;;;;11.03;4.23;;;14.60;99.90;;;;;;5000209;28;20456;-83
2022/11/02 08:18:36;;;;;;;12.47;4.53;;;14.70;99.90;;;;;;5000086;28;21162;-83
2022/11/02 08:21:03;;;;;;;9.20;4.97;;;14.90;99.90;;;;;;4998890;28;20486;-84
2022/11/02 08:23:30;;;;;;;5.70;3.50;;;15.00;99.90;;;;;;4998813;28;20464;-83
2022/11/02 08:25:59;;;;;;;7.33;3.10;;;15.10;99.90;;;;;;4998141;28;20519;-83
2022/11/02 08:28:29;;;;;;;10.83;4.77;;;15.40;99.90;;;;;;4995791;28;20534;-81
2022/11/02 08:30:58;;;;;;;9.50;4.03;;;15.50;99.90;;;;;;4996018;28;20451;-81
2022/11/02 08:33:25;;;;;;;8.40;3.50;;;15.80;99.90;;;;;;4996058;28;20462;-81
2022/11/02 08:35:52;;;;;;;10.93;4.37;;;16.20;99.90;;;;;;4994676;28;20455;-81
2022/11/02 08:38:21;;;;;;;10.63;4.80;;;16.40;99.90;;;;;;4996040;28;20559;-81
2022/11/02 08:40:48;;;;;;;14.60;4.50;;;16.60;99.90;;;;;;4996609;28;20535;-81
2022/11/02 08:43:15;;;;;;;10.60;4.40;;;16.90;99.90;;;;;;4997878;28;20444;-81
2022/11/02 08:45:43;;;;;;;15.93;4.43;;;17.20;99.90;;;;;;5000998;28;20443;-82
2022/11/02 08:48:11;;;;;;;10.67;4.63;;;17.10;99.90;;;;;;4998196;28;20451;-84
2022/11/02 08:50:38;;;;;;;11.73;4.10;;;16.90;99.90;;;;;;4997649;28;20510;-82
2022/11/02 08:53:05;;;;;;;8.60;3.97;;;16.60;99.90;;;;;;5001549;28;20462;-83
2022/11/02 08:55:33;;;;;;;8.27;3.30;;;16.50;99.90;;;;;;5000365;28;20466;-83
2022/11/02 08:58:00;;;;;;;6.77;2.83;;;16.50;99.90;;;;;;5007703;28;20439;-83
2022/11/02 09:00:29;;;;;;;8.23;3.27;;;16.30;99.90;;;;;;5009219;28;20455;-83
2022/11/02 09:03:00;;;;;;;8.97;2.37;;;16.10;99.90;;;;;;5004084;28;20440;-81
2022/11/02 09:05:29;;;;;;;7.10;3.40;;;16.10;99.90;;;;;;5012566;28;20427;-82
2022/11/02 09:07:58;;;;;;;5.00;2.67;;;16.10;99.90;;;;;;5003255;28;20952;-82
2022/11/02 09:10:25;;;;;;;9.20;3.40;;;16.10;99.90;;;;;;4997263;28;20534;-83
2022/11/02 09:12:52;;;;;;;4.33;2.33;;;16.10;99.90;;;;;;5002165;28;20443;-83
2022/11/02 09:15:19;;;;;;;4.87;2.50;;;16.10;99.90;;;;;;5002174;28;20483;-83
2022/11/02 09:17:47;;;;;;;9.57;2.57;;;16.20;99.90;;;;;;5004216;28;20450;-83
2022/11/02 09:20:14;;;;;;;5.10;2.43;;;16.20;99.90;;;;;;5003855;28;20471;-83
2022/11/02 09:22:43;;;;;;;10.70;2.70;;;16.20;99.90;;;;;;5002963;28;20819;-83
2022/11/02 09:25:10;;;;;;;5.87;2.03;;;16.10;99.90;;;;;;5001212;28;20888;-83
2022/11/02 09:27:37;;;;;;;8.87;2.70;;;16.20;99.90;;;;;;5002412;28;20547;-84
2022/11/02 09:30:05;;;;;;;7.47;2.17;;;16.30;99.90;;;;;;5001714;28;20853;-83
2022/11/02 09:32:32;;;;;;;5.50;2.50;;;16.30;99.90;;;;;;5001584;28;20487;-83
2022/11/02 09:34:59;;;;;;;5.57;2.37;;;16.20;99.90;;;;;;5013611;28;20506;-83
2022/11/02 09:37:26;;;;;;;6.73;2.73;;;16.50;99.90;;;;;;5010291;28;20447;-83
2022/11/02 09:39:54;;;;;;;5.07;2.07;;;16.90;99.90;;;;;;5003765;28;20467;-83
2022/11/02 09:42:25;;;;;;;7.53;2.80;;;17.00;99.90;;;;;;5007745;28;20436;-83
2022/11/02 09:44:58;;;;;;;7.17;2.57;;;16.80;99.90;;;;;;5011495;28;20484;-82
2022/11/02 09:47:27;;;;;;;5.50;1.60;;;16.80;99.90;;;;;;5009259;28;20469;-84
2022/11/02 09:49:58;;;;;;;7.63;2.80;;;16.80;99.90;;;;;;5011763;28;20482;-83
2022/11/02 09:52:31;;;;;;;4.07;1.83;;;16.90;99.90;;;;;;5006578;28;20453;-82
2022/11/02 09:55:00;;;;;;;8.20;3.03;;;17.00;99.90;;;;;;5021303;28;21033;-83
2022/11/02 09:57:30;;;;;;;4.43;1.50;;;17.00;99.90;;;;;;5012077;28;20440;-83
2022/11/02 09:59:57;;;;;;;7.10;2.37;;;17.00;99.90;;;;;;5008820;28;20538;-87
2022/11/02 10:02:31;;;;;;;6.13;2.27;;;17.30;99.90;;;;;;5010372;28;20442;-84
2022/11/02 10:05:12;;;;;;;5.20;2.13;;;17.70;99.90;;;;;;5010354;28;20693;-82
2022/11/02 10:08:05;;;;;;;8.20;2.67;;;17.90;99.90;;;;;;5025115;28;20438;-84
2022/11/02 10:10:37;;;;;;;5.87;2.80;;;18.10;99.90;;;;;;5020945;28;20479;-84
2022/11/02 10:13:15;;;;;;;8.80;2.20;;;18.30;99.30;;;;;;5017141;28;20447;-84
2022/11/02 10:15:47;;;;;;;6.87;3.00;;;18.20;98.70;;;;;;5002780;28;20602;-84
2022/11/02 10:18:18;;;;;;;8.83;3.60;;;18.40;98.20;;;;;;5002904;28;20467;-84
2022/11/02 10:20:46;;;;;;;5.73;2.90;;;18.40;97.40;;;;;;4984865;28;20440;-84
2022/11/02 10:23:20;;;;;;;14.13;3.70;;;18.50;97.30;;;;;;4997812;28;20824;-83
2022/11/02 10:25:49;;;;;;;4.50;2.00;;;18.60;96.70;;;;;;5002685;28;20454;-85
2022/11/02 10:28:20;;;;;;;4.33;2.20;;;18.70;96.70;;;;;;5007063;28;20471;-82
2022/11/02 10:30:47;;;;;;;5.30;2.60;;;18.80;95.90;;;;;;5002665;28;20487;-82
2022/11/02 10:33:15;;;;;;;2.63;1.73;;;18.80;95.70;;;;;;5001346;28;20534;-83
2022/11/02 10:35:50;;;;;;;8.47;2.20;;;18.80;95.20;;;;;;5001949;28;20451;-82
2022/11/02 10:38:27;;;;;;;7.07;3.07;;;18.70;94.90;;;;;;5006772;28;20480;-84
2022/11/02 10:41:39;;;;;;;6.47;2.20;;;18.60;95.10;;;;;;5002368;28;20522;-83
2022/11/02 10:44:23;;;;;;;9.27;2.23;;;18.10;94.30;;;;;;5000843;28;20515;-83
2022/11/02 10:47:03;;;;;;;6.57;1.67;;;18.00;95.10;;;;;;5014733;28;20447;-82
2022/11/02 10:49:51;;;;;;;6.07;2.23;;;18.30;94.80;;;;;;5012574;28;20520;-84
2022/11/02 10:52:18;;;;;;;6.73;1.93;;;18.40;94.10;;;;;;5019715;28;20510;-84
2022/11/02 10:54:45;;;;;;;7.47;1.77;;;18.60;94.30;;;;;;5029947;22;21228;-82
2022/11/02 10:57:16;;;;;;;8.60;2.57;;;18.80;94.20;;;;;;5015907;28;20453;-84
2022/11/02 10:59:43;;;;;;;5.70;2.43;;;18.80;93.50;;;;;;4996934;28;20439;-85
2022/11/02 11:02:13;;;;;;;5.83;2.00;;;18.80;93.70;;;;;;4996631;28;20457;-85
2022/11/02 11:04:40;;;;;;;10.60;2.43;;;18.80;93.70;;;;;;5007152;28;20460;-85
2022/11/02 11:07:14;;;;;;;7.10;2.60;;;18.80;93.70;;;;;;4977816;28;20443;-84
2022/11/02 11:09:50;;;;;;;10.10;2.80;;;18.90;93.70;;;;;;4976998;28;20495;-85
2022/11/02 11:12:21;;;;;;;5.90;2.70;;;18.90;94.20;;;;;;4977359;28;20451;-85
2022/11/02 11:14:51;;;;;;;14.63;3.80;;;19.10;93.80;;;;;;4978903;28;20471;-85
2022/11/02 11:17:22;;;;;;;6.00;2.37;;;19.00;93.30;;;;;;4981259;28;20458;-86
2022/11/02 11:19:51;;;;;;;9.80;4.13;;;19.40;93.20;;;;;;5015551;28;20624;-87
2022/11/02 11:22:29;;;;;;;6.63;2.30;;;19.40;92.70;;;;;;5015666;28;20517;-85
2022/11/02 11:25:21;;;;;;;10.43;2.83;;;19.30;92.80;;;;;;4998896;28;20470;-83
2022/11/02 11:27:50;;;;;;;7.73;2.40;;;19.00;93.00;;;;;;4997798;28;21003;-84
2022/11/02 11:30:25;;;;;;;5.10;2.00;;;19.10;93.00;;;;;;4995566;28;20487;-83
2022/11/02 11:32:53;;;;;;;6.37;2.40;;;19.60;92.80;;;;;;4997118;28;20447;-84
2022/11/02 11:35:21;;;;;;;6.60;2.40;;;20.00;92.00;;;;;;5011776;28;20479;-85
2022/11/02 11:37:49;;;;;;;7.30;2.90;;;21.60;90.70;;;;;;4994915;28;20547;-85
2022/11/02 11:40:19;;;;;;;6.43;2.80;;;23.00;86.80;;;;;;4996195;28;20443;-85
2022/11/02 11:42:49;;;;;;;9.17;2.80;;;24.30;82.30;;;;;;4997264;28;20486;-83
2022/11/02 11:45:21;;;;;;;5.37;2.60;;;25.70;77.10;;;;;;4996695;28;20493;-84
2022/11/02 11:47:53;;;;;;;5.10;2.53;;;26.00;72.80;;;;;;4998995;28;20449;-84
2022/11/02 11:50:20;;;;;;;7.70;2.20;;;26.80;68.80;;;;;;4996360;28;20485;-84
2022/11/02 11:52:47;;;;;;;4.30;1.77;;;26.20;66.70;;;;;;4996143;28;20448;-84
2022/11/02 11:55:23;;;;;;;7.17;1.63;;;25.10;70.00;;;;;;4996396;28;20909;-83
2022/11/02 12:00:42;;;;;;;3.92;2.45;;;26.20;68.20;;;;;;5116817;27;1205939;-84
2022/11/02 12:03:10;;;;;;;5.40;1.97;;;28.10;59.90;;;;;;5132835;28;20200;-84
2022/11/02 12:05:49;;;;;;;6.27;2.10;;;29.20;58.00;;;;;;5117979;28;20474;-85
2022/11/02 12:08:24;;;;;;;5.30;1.70;;;28.30;57.60;;;;;;5112282;28;20467;-84
2022/11/02 12:11:02;;;;;;;7.07;1.63;;;25.10;58.80;;;;;;5112389;28;20962;-85
2022/11/02 12:13:46;;;;;;;5.90;2.10;;;23.10;64.90;;;;;;5112763;28;20445;-84
2022/11/02 12:16:23;;;;;;;5.57;2.63;;;22.40;69.50;;;;;;5113178;28;20438;-85
2022/11/02 12:19:12;;;;;;;3.87;2.00;;;23.60;69.60;;;;;;5113092;28;20488;-85
2022/11/02 12:21:50;;;;;;;6.13;2.40;;;23.60;64.30;;;;;;5115008;28;20453;-84
2022/11/02 12:24:38;;;;;;;4.23;2.30;;;22.60;65.80;;;;;;5115913;28;20470;-85
2022/11/02 12:27:19;;;;;;;7.63;3.07;;;22.80;67.40;;;;;;5113083;28;20450;-84
2022/11/02 12:30:00;;;;;;;7.70;4.20;;;24.40;64.10;;;;;;5092540;28;20446;-85
2022/11/02 12:32:41;;;;;;;11.93;6.23;;;24.90;61.60;;;;;;5093262;28;20451;-84
2022/11/02 12:35:22;;;;;;;8.47;3.23;;;24.10;61.80;;;;;;5092754;28;20471;-85
2022/11/02 12:38:17;;;;;;;8.23;3.27;;;24.10;61.10;;;;;;5095244;28;20942;-83
2022/11/02 12:40:54;;;;;;;5.57;1.87;;;23.50;60.90;;;;;;5099728;28;20489;-84
2022/11/02 12:43:37;;;;;;;4.17;2.13;;;23.30;62.70;;;;;;5102724;28;20438;-84
2022/11/02 12:46:19;;;;;;;7.67;2.43;;;22.70;62.90;;;;;;5112076;28;20459;-84
2022/11/02 12:48:57;;;;;;;7.40;2.80;;;22.10;64.10;;;;;;5113035;28;20450;-85
2022/11/02 12:51:28;;;;;;;7.10;3.03;;;21.70;64.50;;;;;;5099326;28;20443;-85
2022/11/02 12:53:58;;;;;;;4.10;2.07;;;21.10;66.10;;;;;;5092386;28;20451;-84
2022/11/02 12:56:29;;;;;;;6.60;2.60;;;21.00;67.00;;;;;;5091839;28;20465;-84
2022/11/02 12:58:56;;;;;;;4.97;1.60;;;20.80;67.00;;;;;;5093251;28;20490;-85
2022/11/02 13:01:27;;;;;;;6.10;2.47;;;20.70;67.50;;;;;;5091965;28;20455;-85
2022/11/02 13:04:02;;;;;;;5.80;1.87;;;21.00;68.00;;;;;;5091480;28;20454;-84
2022/11/02 13:06:34;;;;;;;7.43;1.73;;;21.00;66.40;;;;;;5091406;28;20441;-85
2022/11/02 13:09:07;;;;;;;5.23;1.83;;;20.70;67.50;;;;;;5090599;28;20439;-84
2022/11/02 13:11:38;;;;;;;7.90;3.63;;;20.80;67.70;;;;;;5080720;28;20451;-85
2022/11/02 13:14:11;;;;;;;6.27;2.47;;;20.80;68.00;;;;;;5077311;28;20463;-84